Time;durP1;ratioP1;P1;durP2;ratioP2;P2;SDS_P1;SDS_P2;PMS_P1;PMS_P2;Temp;Humidity;BMP_temperature;BMP_pressure;BME280_temperature;BME280_humidity;BME280_pressure;Samples;Min_cycle;Max_cycle;Signal;HPM_P1;HPM_P2
2020/12/16 00:00:13;;;;;;;9.18;1.98;;;;;;;;;;4945656;29;20070;-58
2020/12/16 00:02:40;;;;;;;8.48;1.27;;;;;;;;;;4944047;29;20046;-59
2020/12/16 00:05:07;;;;;;;6.15;1.10;;;;;;;;;;4943218;29;20054;-57
2020/12/16 00:07:33;;;;;;;4.78;1.13;;;;;;;;;;4945754;29;20048;-58
2020/12/16 00:09:59;;;;;;;5.15;1.08;;;;;;;;;;4930902;29;20058;-57
2020/12/16 00:12:25;;;;;;;6.28;0.93;;;;;;;;;;4944607;29;20119;-58
2020/12/16 00:14:51;;;;;;;4.78;1.05;;;;;;;;;;4944559;29;20086;-58
2020/12/16 00:17:17;;;;;;;6.57;0.80;;;;;;;;;;4946745;29;20044;-58
2020/12/16 00:19:43;;;;;;;5.75;1.30;;;;;;;;;;4946922;29;20047;-56
2020/12/16 00:22:09;;;;;;;7.18;1.20;;;;;;;;;;4931074;29;20031;-60
2020/12/16 00:24:35;;;;;;;6.43;1.20;;;;;;;;;;4946447;29;20043;-59
2020/12/16 00:27:01;;;;;;;9.80;1.52;;;;;;;;;;4945370;29;20055;-58
2020/12/16 00:29:26;;;;;;;10.48;1.30;;;;;;;;;;4943989;29;20048;-58
2020/12/16 00:31:52;;;;;;;8.05;1.70;;;;;;;;;;4944571;29;20043;-59
2020/12/16 00:34:18;;;;;;;5.60;1.08;;;;;;;;;;4943911;29;20103;-58
2020/12/16 00:36:44;;;;;;;6.18;1.08;;;;;;;;;;4946287;29;20050;-56
2020/12/16 00:39:11;;;;;;;7.70;1.40;;;;;;;;;;4944283;29;20099;-59
2020/12/16 00:41:37;;;;;;;3.40;0.77;;;;;;;;;;4944852;29;20063;-58
2020/12/16 00:44:03;;;;;;;4.22;0.80;;;;;;;;;;4926222;29;20125;-59
2020/12/16 00:46:29;;;;;;;3.17;0.68;;;;;;;;;;4943740;29;20122;-59
2020/12/16 00:48:55;;;;;;;4.70;0.82;;;;;;;;;;4944489;29;20047;-57
2020/12/16 00:51:21;;;;;;;4.57;1.60;;;;;;;;;;4928683;29;20107;-58
2020/12/16 00:53:47;;;;;;;11.70;3.15;;;;;;;;;;4945779;29;20102;-57
2020/12/16 00:56:13;;;;;;;9.45;2.70;;;;;;;;;;4950625;29;20107;-58
2020/12/16 00:58:39;;;;;;;7.28;1.88;;;;;;;;;;4949772;29;20042;-57
2020/12/16 01:01:05;;;;;;;9.30;2.10;;;;;;;;;;4949475;29;20165;-56
2020/12/16 01:03:31;;;;;;;11.45;3.13;;;;;;;;;;4949408;29;20039;-57
2020/12/16 01:05:57;;;;;;;7.10;2.95;;;;;;;;;;4948926;29;20071;-58
2020/12/16 01:08:23;;;;;;;5.00;1.77;;;;;;;;;;4948709;29;20039;-57
2020/12/16 01:10:49;;;;;;;6.28;1.17;;;;;;;;;;4951416;29;20046;-57
2020/12/16 01:13:15;;;;;;;4.22;1.00;;;;;;;;;;4952952;29;20061;-57
2020/12/16 01:15:41;;;;;;;2.75;1.10;;;;;;;;;;4952435;29;20073;-57
2020/12/16 01:18:07;;;;;;;5.47;1.80;;;;;;;;;;4953656;29;20492;-57
2020/12/16 01:20:32;;;;;;;3.28;1.00;;;;;;;;;;4952343;29;20488;-56
2020/12/16 01:22:58;;;;;;;7.82;0.80;;;;;;;;;;4951647;29;20048;-56
2020/12/16 01:25:24;;;;;;;7.00;0.80;;;;;;;;;;4953372;29;20099;-57
2020/12/16 01:27:54;;;;;;;3.42;0.80;;;;;;;;;;4958188;29;20074;-57
2020/12/16 01:30:19;;;;;;;4.60;0.60;;;;;;;;;;4954411;29;20043;-58
2020/12/16 01:32:46;;;;;;;6.47;0.70;;;;;;;;;;4954523;29;20112;-58
2020/12/16 01:35:12;;;;;;;4.13;0.70;;;;;;;;;;4952204;29;20124;-59
2020/12/16 01:37:38;;;;;;;8.73;0.85;;;;;;;;;;4950764;29;21513;-56
2020/12/16 01:40:05;;;;;;;3.72;0.70;;;;;;;;;;4948905;29;20040;-57
2020/12/16 01:42:31;;;;;;;6.13;0.95;;;;;;;;;;4947219;29;20134;-57
2020/12/16 01:44:56;;;;;;;4.55;0.82;;;;;;;;;;4951474;29;20047;-58
2020/12/16 01:47:22;;;;;;;8.23;1.08;;;;;;;;;;4953274;29;20044;-57
2020/12/16 01:49:48;;;;;;;5.10;0.82;;;;;;;;;;4952909;29;20100;-58
2020/12/16 01:52:23;;;;;;;7.05;2.17;;;;;;;;;;4952078;29;20054;-58
2020/12/16 01:54:50;;;;;;;3.88;1.40;;;;;;;;;;4950840;29;21944;-58
2020/12/16 01:57:17;;;;;;;6.32;1.00;;;;;;;;;;4953612;29;20936;-56
2020/12/16 01:59:45;;;;;;;8.95;0.90;;;;;;;;;;4951245;29;20031;-57
2020/12/16 02:02:11;;;;;;;5.45;1.10;;;;;;;;;;4950135;29;20047;-57
2020/12/16 02:04:41;;;;;;;8.07;1.15;;;;;;;;;;4948375;29;20123;-58
2020/12/16 02:07:08;;;;;;;7.10;1.40;;;;;;;;;;4947590;28;20053;-58
2020/12/16 02:09:38;;;;;;;5.55;0.80;;;;;;;;;;4931692;29;20036;-57
2020/12/16 02:12:09;;;;;;;14.82;1.50;;;;;;;;;;4949119;29;20051;-58
2020/12/16 02:14:34;;;;;;;6.15;1.60;;;;;;;;;;4947799;29;20078;-57
2020/12/16 02:17:00;;;;;;;5.93;1.20;;;;;;;;;;4945982;29;20691;-56
2020/12/16 02:19:29;;;;;;;3.53;1.00;;;;;;;;;;4946723;29;20547;-56
2020/12/16 02:21:55;;;;;;;6.78;1.00;;;;;;;;;;4946524;29;20101;-57
2020/12/16 02:24:22;;;;;;;2.60;0.70;;;;;;;;;;4945607;29;20047;-56
2020/12/16 02:26:47;;;;;;;3.10;0.68;;;;;;;;;;4946700;29;20046;-55
2020/12/16 02:29:13;;;;;;;3.13;0.73;;;;;;;;;;4944297;29;20035;-58
2020/12/16 02:31:40;;;;;;;4.38;0.60;;;;;;;;;;4946448;29;20043;-57
2020/12/16 02:34:06;;;;;;;4.78;0.70;;;;;;;;;;4946655;29;20054;-55
2020/12/16 02:36:32;;;;;;;6.15;0.73;;;;;;;;;;4943551;29;20031;-56
2020/12/16 02:38:58;;;;;;;5.82;0.90;;;;;;;;;;4940816;28;20054;-56
2020/12/16 02:41:27;;;;;;;7.68;1.77;;;;;;;;;;4943382;29;20031;-57
2020/12/16 02:43:52;;;;;;;4.15;0.82;;;;;;;;;;4946506;29;20051;-57
2020/12/16 02:46:18;;;;;;;4.65;0.60;;;;;;;;;;4941565;29;20051;-56
2020/12/16 02:48:44;;;;;;;3.05;0.68;;;;;;;;;;4945464;28;20107;-56
2020/12/16 02:51:10;;;;;;;6.30;0.70;;;;;;;;;;4945974;28;20050;-57
2020/12/16 02:53:36;;;;;;;4.88;1.00;;;;;;;;;;4940381;29;20051;-57
2020/12/16 02:56:02;;;;;;;4.57;1.00;;;;;;;;;;4941445;29;20075;-54
2020/12/16 02:58:28;;;;;;;4.18;1.27;;;;;;;;;;4939828;29;20055;-59
2020/12/16 03:00:54;;;;;;;3.28;0.80;;;;;;;;;;4943602;28;20057;-58
2020/12/16 03:03:20;;;;;;;1.98;0.80;;;;;;;;;;4942859;29;20122;-58
2020/12/16 03:05:46;;;;;;;2.00;0.50;;;;;;;;;;4943326;29;20076;-59
2020/12/16 03:08:11;;;;;;;1.90;0.52;;;;;;;;;;4944248;29;20054;-58
2020/12/16 03:10:38;;;;;;;1.30;0.50;;;;;;;;;;4943621;29;20102;-58
2020/12/16 03:13:04;;;;;;;1.48;0.50;;;;;;;;;;4943770;28;20082;-58
2020/12/16 03:15:30;;;;;;;2.13;0.50;;;;;;;;;;4943056;29;20145;-58
2020/12/16 03:17:56;;;;;;;2.78;0.60;;;;;;;;;;4944553;29;20054;-58
2020/12/16 03:20:22;;;;;;;5.57;0.68;;;;;;;;;;4942735;29;20051;-58
2020/12/16 03:22:48;;;;;;;3.70;1.05;;;;;;;;;;4943533;29;20042;-57
2020/12/16 03:25:14;;;;;;;5.20;1.20;;;;;;;;;;4944623;29;20039;-58
2020/12/16 03:27:39;;;;;;;2.35;0.70;;;;;;;;;;4942717;29;20044;-58
2020/12/16 03:30:05;;;;;;;6.63;1.80;;;;;;;;;;4945116;29;20043;-58
2020/12/16 03:32:32;;;;;;;7.80;2.40;;;;;;;;;;4943135;29;20052;-57
2020/12/16 03:34:57;;;;;;;7.47;1.92;;;;;;;;;;4946402;29;20078;-58
2020/12/16 03:37:23;;;;;;;4.10;0.80;;;;;;;;;;4944874;29;20046;-56
2020/12/16 03:39:49;;;;;;;6.20;0.68;;;;;;;;;;4945440;29;20035;-59
2020/12/16 03:42:15;;;;;;;7.57;0.80;;;;;;;;;;4944608;29;20090;-58
2020/12/16 03:44:41;;;;;;;4.70;1.08;;;;;;;;;;4942803;29;20103;-58
2020/12/16 03:47:07;;;;;;;8.32;1.67;;;;;;;;;;4945848;29;20047;-58
2020/12/16 03:49:33;;;;;;;2.90;0.80;;;;;;;;;;4942071;29;20032;-58
2020/12/16 03:51:59;;;;;;;4.82;0.80;;;;;;;;;;4927319;29;20554;-56
2020/12/16 03:54:25;;;;;;;3.40;0.80;;;;;;;;;;4944553;29;20117;-57
2020/12/16 03:56:51;;;;;;;4.47;0.82;;;;;;;;;;4943639;29;20055;-58
2020/12/16 03:59:17;;;;;;;6.60;1.00;;;;;;;;;;4941987;29;20043;-59
2020/12/16 04:01:43;;;;;;;5.30;1.10;;;;;;;;;;4945177;29;20049;-58
2020/12/16 04:04:10;;;;;;;3.78;0.90;;;;;;;;;;4944983;29;20048;-58
2020/12/16 04:06:36;;;;;;;4.63;0.98;;;;;;;;;;4944946;29;20047;-58
2020/12/16 04:09:05;;;;;;;3.60;0.82;;;;;;;;;;4943960;29;20039;-58
2020/12/16 04:11:31;;;;;;;8.85;1.20;;;;;;;;;;4944252;29;20044;-58
2020/12/16 04:13:57;;;;;;;7.07;1.27;;;;;;;;;;4944526;29;20055;-59
2020/12/16 04:16:23;;;;;;;3.70;1.20;;;;;;;;;;4942163;29;20040;-58
2020/12/16 04:18:50;;;;;;;3.88;1.10;;;;;;;;;;4941205;29;20047;-58
2020/12/16 04:21:16;;;;;;;7.38;1.30;;;;;;;;;;4944702;29;20039;-59
2020/12/16 04:23:42;;;;;;;6.25;1.30;;;;;;;;;;4944811;29;20067;-58
2020/12/16 04:26:08;;;;;;;8.73;1.00;;;;;;;;;;4926620;29;20042;-58
2020/12/16 04:28:35;;;;;;;2.53;0.70;;;;;;;;;;4943131;29;20039;-58
2020/12/16 04:31:03;;;;;;;5.53;1.10;;;;;;;;;;4944404;29;20049;-58
2020/12/16 04:33:29;;;;;;;5.20;1.02;;;;;;;;;;4947650;29;20055;-58
2020/12/16 04:35:55;;;;;;;1.48;0.60;;;;;;;;;;4946127;29;20054;-58
2020/12/16 04:38:21;;;;;;;4.35;0.90;;;;;;;;;;4946291;29;20035;-58
2020/12/16 04:40:46;;;;;;;7.20;1.02;;;;;;;;;;4947861;29;20043;-60
2020/12/16 04:43:20;;;;;;;4.07;0.80;;;;;;;;;;4946273;29;20518;-59
2020/12/16 04:45:46;;;;;;;7.63;0.98;;;;;;;;;;4948103;29;20118;-57
2020/12/16 04:48:12;;;;;;;3.45;0.90;;;;;;;;;;4947824;29;20039;-60
2020/12/16 04:50:39;;;;;;;2.38;0.70;;;;;;;;;;4944495;29;20039;-62
2020/12/16 04:53:06;;;;;;;4.45;0.57;;;;;;;;;;4946190;29;20053;-58
2020/12/16 04:55:32;;;;;;;1.63;0.50;;;;;;;;;;4947506;29;20039;-58
2020/12/16 04:58:00;;;;;;;1.63;0.50;;;;;;;;;;4949674;29;20129;-59
2020/12/16 05:00:26;;;;;;;1.13;0.40;;;;;;;;;;4929951;29;20047;-59
2020/12/16 05:02:54;;;;;;;2.05;0.50;;;;;;;;;;4947626;29;20063;-58
2020/12/16 05:05:20;;;;;;;4.68;0.50;;;;;;;;;;4945900;29;20074;-59
2020/12/16 05:07:48;;;;;;;2.20;0.50;;;;;;;;;;4948022;29;20073;-57
2020/12/16 05:10:29;;;;;;;3.78;0.60;;;;;;;;;;4947204;29;20342;-59
2020/12/16 05:13:08;;;;;;;1.30;0.40;;;;;;;;;;4947083;29;20051;-58
2020/12/16 05:15:35;;;;;;;2.17;0.55;;;;;;;;;;4943972;29;20131;-58
2020/12/16 05:18:10;;;;;;;2.42;0.65;;;;;;;;;;4946344;29;20040;-57
2020/12/16 05:20:37;;;;;;;4.13;0.82;;;;;;;;;;4945278;29;20142;-58
2020/12/16 05:23:03;;;;;;;2.35;0.60;;;;;;;;;;4945379;29;20040;-58
2020/12/16 05:25:29;;;;;;;2.33;0.60;;;;;;;;;;4946203;29;20038;-58
2020/12/16 05:27:55;;;;;;;2.55;0.63;;;;;;;;;;4946104;29;20110;-59
2020/12/16 05:30:21;;;;;;;2.88;0.70;;;;;;;;;;4945555;29;20769;-57
2020/12/16 05:32:47;;;;;;;2.83;0.60;;;;;;;;;;4931381;29;20047;-58
2020/12/16 05:35:27;;;;;;;4.45;0.80;;;;;;;;;;4947346;29;20082;-59
2020/12/16 05:38:03;;;;;;;4.75;0.73;;;;;;;;;;4946499;29;20112;-58
2020/12/16 05:40:30;;;;;;;4.35;0.75;;;;;;;;;;4947861;29;20068;-59
2020/12/16 05:42:56;;;;;;;7.43;0.85;;;;;;;;;;4945853;28;20044;-59
2020/12/16 05:45:23;;;;;;;4.57;0.75;;;;;;;;;;4947204;29;20044;-59
2020/12/16 05:47:58;;;;;;;6.10;1.00;;;;;;;;;;4947192;29;20043;-58
2020/12/16 05:50:24;;;;;;;8.70;0.82;;;;;;;;;;4949134;29;20102;-59
2020/12/16 05:53:06;;;;;;;2.85;0.82;;;;;;;;;;4946341;29;20106;-59
2020/12/16 05:55:32;;;;;;;2.30;0.65;;;;;;;;;;4945605;29;20082;-59
2020/12/16 05:58:05;;;;;;;5.18;0.80;;;;;;;;;;4944690;29;20055;-58
2020/12/16 06:00:40;;;;;;;2.13;0.70;;;;;;;;;;4944560;29;20583;-60
2020/12/16 06:03:07;;;;;;;4.30;1.00;;;;;;;;;;4945969;29;20051;-62
2020/12/16 06:05:33;;;;;;;2.92;0.82;;;;;;;;;;4945696;29;20058;-59
2020/12/16 06:07:59;;;;;;;2.55;0.82;;;;;;;;;;4944288;29;20047;-58
2020/12/16 06:10:26;;;;;;;4.55;0.85;;;;;;;;;;4945557;29;20055;-59
2020/12/16 06:12:52;;;;;;;3.42;0.80;;;;;;;;;;4947220;29;20126;-59
2020/12/16 06:15:18;;;;;;;4.20;0.90;;;;;;;;;;4944863;29;20051;-59
2020/12/16 06:17:45;;;;;;;5.35;0.90;;;;;;;;;;4946209;29;20105;-58
2020/12/16 06:20:14;;;;;;;5.53;1.05;;;;;;;;;;4947016;29;20492;-59
2020/12/16 06:22:42;;;;;;;2.15;0.60;;;;;;;;;;4945812;29;20055;-59
2020/12/16 06:25:09;;;;;;;3.47;0.70;;;;;;;;;;4946526;29;20036;-58
2020/12/16 06:27:42;;;;;;;3.15;0.98;;;;;;;;;;4945063;29;20069;-59
2020/12/16 06:30:07;;;;;;;;;;;;;;;;;;4945100;29;20043;-58
2020/12/16 06:32:38;;;;;;;3.05;0.82;;;;;;;;;;4947587;29;19933;-59
2020/12/16 06:35:05;;;;;;;4.93;0.68;;;;;;;;;;4945160;29;20059;-59
2020/12/16 06:37:31;;;;;;;2.25;0.50;;;;;;;;;;4945053;29;20055;-59
2020/12/16 06:39:57;;;;;;;3.67;0.57;;;;;;;;;;4944925;29;20195;-58
2020/12/16 06:42:32;;;;;;;5.63;0.60;;;;;;;;;;4944993;29;20051;-59
2020/12/16 06:45:15;;;;;;;1.63;0.50;;;;;;;;;;4944235;29;20055;-58
2020/12/16 06:47:41;;;;;;;4.25;0.63;;;;;;;;;;4945328;29;20523;-58
2020/12/16 06:50:20;;;;;;;5.35;0.60;;;;;;;;;;4945063;29;20096;-59
2020/12/16 06:52:47;;;;;;;1.73;0.50;;;;;;;;;;4943800;28;20200;-58
2020/12/16 06:55:13;;;;;;;2.58;0.50;;;;;;;;;;4945622;29;20067;-57
2020/12/16 06:57:46;;;;;;;1.85;0.50;;;;;;;;;;4943644;29;20067;-58
2020/12/16 07:00:22;;;;;;;7.20;0.73;;;;;;;;;;4947018;29;20063;-58
2020/12/16 07:02:48;;;;;;;2.15;0.60;;;;;;;;;;4928762;29;20050;-58
2020/12/16 07:05:33;;;;;;;3.50;0.70;;;;;;;;;;4943761;29;20138;-58
2020/12/16 07:07:59;;;;;;;1.65;0.60;;;;;;;;;;4946505;29;20091;-58
2020/12/16 07:10:34;;;;;;;8.82;2.08;;;;;;;;;;4918998;29;20103;-59
2020/12/16 07:13:09;;;;;;;4.80;0.60;;;;;;;;;;4944480;29;20047;-58
2020/12/16 07:15:46;;;;;;;2.17;0.63;;;;;;;;;;4934445;29;20039;-59
2020/12/16 07:18:45;;;;;;;5.22;0.60;;;;;;;;;;4943536;29;20046;-59
2020/12/16 07:21:17;;;;;;;3.78;0.70;;;;;;;;;;4897756;29;20121;-58
2020/12/16 07:23:44;;;;;;;2.70;0.60;;;;;;;;;;4944722;29;20039;-58
2020/12/16 07:26:12;;;;;;;2.10;0.68;;;;;;;;;;4946082;29;20063;-58
2020/12/16 07:28:39;;;;;;;1.48;0.50;;;;;;;;;;4944191;29;20072;-58
2020/12/16 07:31:06;;;;;;;3.35;0.60;;;;;;;;;;4942928;29;20619;-59
2020/12/16 07:33:32;;;;;;;1.35;0.40;;;;;;;;;;4944545;29;20054;-58
2020/12/16 07:35:59;;;;;;;2.10;0.60;;;;;;;;;;4944578;29;20059;-59
2020/12/16 07:38:25;;;;;;;1.30;0.45;;;;;;;;;;4942736;29;20047;-59
2020/12/16 07:40:52;;;;;;;2.78;0.55;;;;;;;;;;4945164;29;20051;-59
2020/12/16 07:43:20;;;;;;;1.05;0.50;;;;;;;;;;4942789;29;20043;-58
2020/12/16 07:45:46;;;;;;;2.75;0.80;;;;;;;;;;4940141;29;20122;-58
2020/12/16 07:48:16;;;;;;;2.78;0.60;;;;;;;;;;4944159;29;20043;-59
2020/12/16 07:50:42;;;;;;;5.70;0.55;;;;;;;;;;4942937;29;20114;-59
2020/12/16 07:53:08;;;;;;;1.60;0.50;;;;;;;;;;4934733;29;20047;-59
2020/12/16 07:55:38;;;;;;;4.13;0.60;;;;;;;;;;4941537;29;20085;-59
2020/12/16 07:58:08;;;;;;;1.25;0.80;;;;;;;;;;4928633;29;20067;-59
2020/12/16 08:00:34;;;;;;;2.55;0.60;;;;;;;;;;4944746;29;20040;-60
2020/12/16 08:03:00;;;;;;;1.88;0.60;;;;;;;;;;4941446;29;20059;-59
2020/12/16 08:05:27;;;;;;;2.38;0.40;;;;;;;;;;4942546;29;20055;-59
2020/12/16 08:07:59;;;;;;;2.17;0.50;;;;;;;;;;4943995;29;20182;-60
2020/12/16 08:10:26;;;;;;;0.65;0.40;;;;;;;;;;4926758;29;20133;-60
2020/12/16 08:12:53;;;;;;;1.30;0.40;;;;;;;;;;4944393;29;20047;-60
2020/12/16 08:15:22;;;;;;;2.85;0.47;;;;;;;;;;4944838;29;20058;-59
2020/12/16 08:17:51;;;;;;;1.23;0.50;;;;;;;;;;4947144;29;20044;-59
2020/12/16 08:20:22;;;;;;;1.70;0.50;;;;;;;;;;4944042;29;20039;-59
2020/12/16 08:22:48;;;;;;;1.42;0.50;;;;;;;;;;4943588;29;20069;-59
2020/12/16 08:25:15;;;;;;;1.33;0.43;;;;;;;;;;4943208;29;20043;-58
2020/12/16 08:27:45;;;;;;;1.15;0.40;;;;;;;;;;4943236;29;20044;-59
2020/12/16 08:30:12;;;;;;;0.75;0.40;;;;;;;;;;4944468;29;20039;-59
2020/12/16 08:32:56;;;;;;;2.42;0.60;;;;;;;;;;4942753;29;20055;-58
2020/12/16 08:35:26;;;;;;;3.03;0.50;;;;;;;;;;4941449;29;20059;-60
2020/12/16 08:37:56;;;;;;;1.17;0.40;;;;;;;;;;4945436;29;20054;-60
2020/12/16 08:40:22;;;;;;;1.40;0.40;;;;;;;;;;4928766;29;20035;-59
2020/12/16 08:42:48;;;;;;;0.65;0.38;;;;;;;;;;4945429;29;20046;-60
2020/12/16 08:45:18;;;;;;;0.73;0.40;;;;;;;;;;4942216;29;20059;-59
2020/12/16 08:47:44;;;;;;;0.43;0.30;;;;;;;;;;4942713;29;20051;-62
2020/12/16 08:50:18;;;;;;;1.70;0.40;;;;;;;;;;4944128;29;20051;-58
2020/12/16 08:52:45;;;;;;;0.65;0.30;;;;;;;;;;4942058;29;20074;-58
2020/12/16 08:55:12;;;;;;;1.30;0.50;;;;;;;;;;4943331;29;20063;-58
2020/12/16 08:57:37;;;;;;;0.88;0.40;;;;;;;;;;4943084;29;20090;-59
2020/12/16 09:00:09;;;;;;;0.65;0.38;;;;;;;;;;4944996;29;20051;-59
2020/12/16 09:02:35;;;;;;;2.88;0.50;;;;;;;;;;4944627;29;20032;-60
2020/12/16 09:05:01;;;;;;;2.97;0.50;;;;;;;;;;4943372;29;20162;-60
2020/12/16 09:07:27;;;;;;;0.73;0.40;;;;;;;;;;4943332;29;20916;-60
2020/12/16 09:09:55;;;;;;;0.63;0.38;;;;;;;;;;4943681;29;20047;-59
2020/12/16 09:12:22;;;;;;;2.42;0.50;;;;;;;;;;4943430;29;20036;-60
2020/12/16 09:14:48;;;;;;;0.40;0.30;;;;;;;;;;4943699;29;20058;-60
2020/12/16 09:17:14;;;;;;;1.80;0.40;;;;;;;;;;4933956;29;20046;-60
2020/12/16 09:19:40;;;;;;;1.45;0.40;;;;;;;;;;4949537;29;20075;-59
2020/12/16 09:22:06;;;;;;;1.15;0.40;;;;;;;;;;4945223;29;20044;-60
2020/12/16 09:24:32;;;;;;;0.60;0.30;;;;;;;;;;4945712;29;20047;-59
2020/12/16 09:27:04;;;;;;;0.65;0.40;;;;;;;;;;4945417;29;20050;-59
2020/12/16 09:29:30;;;;;;;0.73;0.40;;;;;;;;;;4945558;29;20031;-60
2020/12/16 09:32:09;;;;;;;1.58;0.50;;;;;;;;;;4947746;29;20225;-59
2020/12/16 09:34:39;;;;;;;0.43;0.30;;;;;;;;;;4946586;29;20068;-60
2020/12/16 09:37:23;;;;;;;0.68;0.40;;;;;;;;;;4947363;29;20588;-59
2020/12/16 09:39:49;;;;;;;;;;;;;;;;;;4946765;29;20049;-59
2020/12/16 09:42:16;;;;;;;0.95;0.40;;;;;;;;;;4946653;29;20009;-60
2020/12/16 09:44:43;;;;;;;0.32;0.32;;;;;;;;;;4945626;29;20473;-59
2020/12/16 09:47:13;;;;;;;0.77;0.40;;;;;;;;;;4946337;29;20085;-59
2020/12/16 09:49:39;;;;;;;2.20;0.50;;;;;;;;;;4944908;29;20170;-58
2020/12/16 09:52:05;;;;;;;0.82;0.40;;;;;;;;;;4946850;29;20046;-59
2020/12/16 09:54:32;;;;;;;3.00;0.40;;;;;;;;;;4945608;29;20082;-60
2020/12/16 09:57:10;;;;;;;1.42;0.47;;;;;;;;;;4946819;29;20044;-59
2020/12/16 09:59:36;;;;;;;1.10;0.40;;;;;;;;;;4944691;29;20058;-59
2020/12/16 10:02:02;;;;;;;2.05;0.55;;;;;;;;;;4946772;29;20040;-60
2020/12/16 10:04:28;;;;;;;1.15;0.40;;;;;;;;;;4945200;29;20474;-59
2020/12/16 10:06:54;;;;;;;1.15;0.40;;;;;;;;;;4945900;29;20047;-59
2020/12/16 10:09:20;;;;;;;1.98;0.50;;;;;;;;;;4946521;29;20073;-60
2020/12/16 10:11:47;;;;;;;4.10;0.52;;;;;;;;;;4946745;29;20043;-58
2020/12/16 10:14:15;;;;;;;1.10;0.40;;;;;;;;;;4945007;29;20062;-60
2020/12/16 10:16:43;;;;;;;1.23;0.40;;;;;;;;;;4944910;29;20042;-59
2020/12/16 10:19:08;;;;;;;0.93;0.40;;;;;;;;;;4945796;29;20046;-59
2020/12/16 10:21:34;;;;;;;1.02;0.45;;;;;;;;;;4945949;29;20043;-59
2020/12/16 10:24:00;;;;;;;0.93;0.40;;;;;;;;;;4946374;29;20082;-59
2020/12/16 10:26:26;;;;;;;0.95;0.40;;;;;;;;;;4944875;29;20039;-58
2020/12/16 10:28:52;;;;;;;1.80;0.40;;;;;;;;;;4945453;28;20070;-59
2020/12/16 10:31:17;;;;;;;0.40;0.40;;;;;;;;;;4945666;29;20035;-59
2020/12/16 10:33:43;;;;;;;0.30;0.30;;;;;;;;;;4944301;29;20055;-60
2020/12/16 10:36:11;;;;;;;0.65;0.40;;;;;;;;;;4945417;29;20042;-58
2020/12/16 10:38:37;;;;;;;0.47;0.40;;;;;;;;;;4944418;29;20036;-59
2020/12/16 10:41:03;;;;;;;0.63;0.40;;;;;;;;;;4946154;29;20039;-59
2020/12/16 10:43:29;;;;;;;0.30;0.30;;;;;;;;;;4944061;29;20047;-59
2020/12/16 10:45:55;;;;;;;0.63;0.40;;;;;;;;;;4943940;29;20063;-58
2020/12/16 10:48:22;;;;;;;2.08;0.40;;;;;;;;;;4943621;29;20043;-59
2020/12/16 10:50:47;;;;;;;0.73;0.40;;;;;;;;;;4946077;29;20048;-59
2020/12/16 10:53:13;;;;;;;0.75;0.40;;;;;;;;;;4947058;29;20039;-59
2020/12/16 10:55:39;;;;;;;1.20;0.40;;;;;;;;;;4944792;29;20124;-56
2020/12/16 10:58:05;;;;;;;2.45;0.40;;;;;;;;;;4946182;29;20044;-59
2020/12/16 11:00:31;;;;;;;1.08;0.40;;;;;;;;;;4946394;29;20043;-59
2020/12/16 11:02:57;;;;;;;2.83;0.40;;;;;;;;;;4945827;29;20643;-59
2020/12/16 11:05:22;;;;;;;1.23;0.40;;;;;;;;;;4944421;29;20062;-59
2020/12/16 11:07:48;;;;;;;0.80;0.40;;;;;;;;;;4928261;29;20053;-59
2020/12/16 11:10:14;;;;;;;1.30;0.40;;;;;;;;;;4945794;29;20099;-59
2020/12/16 11:12:40;;;;;;;0.70;0.40;;;;;;;;;;4947318;29;20544;-60
2020/12/16 11:15:06;;;;;;;0.98;0.40;;;;;;;;;;4943265;29;20062;-60
2020/12/16 11:17:32;;;;;;;1.08;0.40;;;;;;;;;;4945542;29;20040;-59
2020/12/16 11:19:58;;;;;;;1.05;0.40;;;;;;;;;;4945394;29;22124;-59
2020/12/16 11:22:24;;;;;;;1.08;0.40;;;;;;;;;;4945604;29;20044;-59
2020/12/16 11:24:50;;;;;;;1.13;0.40;;;;;;;;;;4945521;29;20039;-59
2020/12/16 11:27:16;;;;;;;0.40;0.35;;;;;;;;;;4944435;29;20043;-59
2020/12/16 11:29:48;;;;;;;0.50;0.30;;;;;;;;;;4943517;29;20063;-60
2020/12/16 11:32:14;;;;;;;1.27;0.40;;;;;;;;;;4944910;29;20245;-59
2020/12/16 11:34:40;;;;;;;2.80;0.50;;;;;;;;;;4926854;29;20063;-58
2020/12/16 11:37:07;;;;;;;0.73;0.40;;;;;;;;;;4944548;29;20071;-57
2020/12/16 11:39:32;;;;;;;2.55;0.40;;;;;;;;;;4925525;29;20043;-58
2020/12/16 11:41:58;;;;;;;0.77;0.40;;;;;;;;;;4945713;29;20677;-59
2020/12/16 11:44:25;;;;;;;0.77;0.38;;;;;;;;;;4942948;29;20428;-58
2020/12/16 11:46:52;;;;;;;1.58;0.50;;;;;;;;;;4943485;29;20044;-59
2020/12/16 11:49:19;;;;;;;0.70;0.35;;;;;;;;;;4944815;29;20073;-58
2020/12/16 11:51:44;;;;;;;2.03;0.50;;;;;;;;;;4946455;29;20039;-56
2020/12/16 11:54:10;;;;;;;0.68;0.40;;;;;;;;;;4943616;29;20062;-58
2020/12/16 11:56:37;;;;;;;0.70;0.40;;;;;;;;;;4943308;29;20051;-59
2020/12/16 11:59:03;;;;;;;1.02;0.40;;;;;;;;;;4945192;29;22357;-60
2020/12/16 12:01:29;;;;;;;2.67;0.52;;;;;;;;;;4943304;29;20051;-59
2020/12/16 12:03:55;;;;;;;2.30;1.05;;;;;;;;;;4944324;29;20051;-59
2020/12/16 12:06:21;;;;;;;2.40;0.50;;;;;;;;;;4945265;29;20055;-59
2020/12/16 12:08:47;;;;;;;1.27;0.50;;;;;;;;;;4944828;29;20057;-58
2020/12/16 12:11:14;;;;;;;1.10;0.50;;;;;;;;;;4944018;29;20043;-59
2020/12/16 12:13:40;;;;;;;1.23;0.50;;;;;;;;;;4943872;29;20087;-57
2020/12/16 12:16:10;;;;;;;1.52;0.40;;;;;;;;;;4944009;29;20039;-60
2020/12/16 12:18:38;;;;;;;0.88;0.40;;;;;;;;;;4926674;29;20043;-59
2020/12/16 12:21:05;;;;;;;1.05;0.40;;;;;;;;;;4945120;29;20082;-59
2020/12/16 12:23:30;;;;;;;3.60;0.50;;;;;;;;;;4944256;29;20035;-59
2020/12/16 12:25:56;;;;;;;1.00;0.40;;;;;;;;;;4946174;29;20935;-58
2020/12/16 12:28:22;;;;;;;1.10;0.40;;;;;;;;;;4941331;29;20043;-59
2020/12/16 12:30:48;;;;;;;2.45;0.50;;;;;;;;;;4943261;29;20050;-60
2020/12/16 12:33:14;;;;;;;0.77;0.40;;;;;;;;;;4943769;29;20050;-60
2020/12/16 12:35:40;;;;;;;1.20;0.50;;;;;;;;;;4942221;29;20067;-60
2020/12/16 12:38:06;;;;;;;0.70;0.40;;;;;;;;;;4927693;29;20058;-59
2020/12/16 12:40:32;;;;;;;1.35;0.40;;;;;;;;;;4944926;29;20043;-59
2020/12/16 12:42:58;;;;;;;0.45;0.35;;;;;;;;;;4943526;29;20039;-60
2020/12/16 12:45:23;;;;;;;5.22;0.45;;;;;;;;;;4942162;29;20055;-60
2020/12/16 12:47:49;;;;;;;3.42;0.40;;;;;;;;;;4944165;29;20075;-60
2020/12/16 12:50:15;;;;;;;1.60;0.50;;;;;;;;;;4944649;28;20044;-60
2020/12/16 12:52:41;;;;;;;1.75;0.40;;;;;;;;;;4947363;29;20046;-60
2020/12/16 12:55:07;;;;;;;1.83;0.40;;;;;;;;;;4947643;29;20090;-60
2020/12/16 12:57:38;;;;;;;1.27;0.40;;;;;;;;;;4947150;29;20035;-60
2020/12/16 13:00:04;;;;;;;1.02;0.40;;;;;;;;;;4948445;29;20050;-60
2020/12/16 13:02:30;;;;;;;0.52;0.40;;;;;;;;;;4948013;29;20047;-59
2020/12/16 13:04:56;;;;;;;1.15;0.43;;;;;;;;;;4948217;29;20075;-60
2020/12/16 13:07:22;;;;;;;1.50;0.40;;;;;;;;;;4948280;29;20119;-59
2020/12/16 13:09:48;;;;;;;1.77;0.50;;;;;;;;;;4948846;29;23041;-60
2020/12/16 13:12:14;;;;;;;0.90;0.40;;;;;;;;;;4947134;28;20496;-60
2020/12/16 13:14:40;;;;;;;2.50;1.38;;;;;;;;;;4946513;28;20051;-59
2020/12/16 13:17:06;;;;;;;1.10;0.40;;;;;;;;;;4948513;29;20048;-58
2020/12/16 13:19:31;;;;;;;1.60;0.47;;;;;;;;;;4945186;29;20622;-57
2020/12/16 13:21:57;;;;;;;8.15;1.10;;;;;;;;;;4940973;28;20043;-58
2020/12/16 13:24:24;;;;;;;1.52;0.47;;;;;;;;;;4945642;29;20056;-58
2020/12/16 13:26:50;;;;;;;1.27;0.40;;;;;;;;;;4947677;29;20055;-58
2020/12/16 13:29:17;;;;;;;1.38;0.40;;;;;;;;;;4948254;29;20038;-57
2020/12/16 13:31:49;;;;;;;0.38;0.30;;;;;;;;;;4945311;29;20040;-58
2020/12/16 13:34:15;;;;;;;1.90;0.40;;;;;;;;;;4947653;29;20043;-59
2020/12/16 13:36:41;;;;;;;1.42;0.50;;;;;;;;;;4944073;29;20050;-58
2020/12/16 13:39:07;;;;;;;2.03;0.55;;;;;;;;;;4949581;29;20557;-57
2020/12/16 13:41:33;;;;;;;1.27;0.40;;;;;;;;;;4943970;29;20031;-58
2020/12/16 13:43:59;;;;;;;2.50;0.30;;;;;;;;;;4947757;29;20115;-56
2020/12/16 13:46:25;;;;;;;1.63;0.50;;;;;;;;;;4944268;29;20066;-58
2020/12/16 13:48:51;;;;;;;1.60;0.50;;;;;;;;;;4943166;29;20050;-57
2020/12/16 13:51:23;;;;;;;4.47;0.55;;;;;;;;;;4944929;29;20047;-56
2020/12/16 13:53:49;;;;;;;1.17;0.50;;;;;;;;;;4945634;29;20155;-57
2020/12/16 13:56:16;;;;;;;8.65;0.70;;;;;;;;;;4945803;29;20188;-57
2020/12/16 13:58:41;;;;;;;3.00;0.52;;;;;;;;;;4947101;29;21245;-57
2020/12/16 14:01:07;;;;;;;4.75;0.57;;;;;;;;;;4945686;29;20051;-57
2020/12/16 14:03:33;;;;;;;1.73;0.50;;;;;;;;;;4945052;28;20047;-56
2020/12/16 14:05:59;;;;;;;2.55;0.40;;;;;;;;;;4945703;29;20067;-56
2020/12/16 14:08:25;;;;;;;2.13;0.50;;;;;;;;;;4947037;29;20051;-58
2020/12/16 14:10:51;;;;;;;1.95;0.40;;;;;;;;;;4946823;29;20043;-59
2020/12/16 14:13:17;;;;;;;2.80;0.50;;;;;;;;;;4945108;29;20587;-57
2020/12/16 14:15:44;;;;;;;1.25;0.50;;;;;;;;;;4945789;29;20062;-57
2020/12/16 14:18:10;;;;;;;5.07;0.90;;;;;;;;;;4946689;29;20055;-61
2020/12/16 14:20:36;;;;;;;1.58;0.40;;;;;;;;;;4944929;29;20035;-57
2020/12/16 14:23:02;;;;;;;1.50;0.43;;;;;;;;;;4945607;29;20054;-56
2020/12/16 14:25:28;;;;;;;3.83;0.50;;;;;;;;;;4934760;29;20040;-54
2020/12/16 14:27:54;;;;;;;4.95;0.70;;;;;;;;;;4944353;29;20492;-57
2020/12/16 14:30:20;;;;;;;4.05;0.70;;;;;;;;;;4945506;29;20488;-57
2020/12/16 14:32:46;;;;;;;2.22;0.70;;;;;;;;;;4946420;29;20044;-57
2020/12/16 14:35:11;;;;;;;7.47;0.70;;;;;;;;;;4945154;29;20614;-54
2020/12/16 14:37:37;;;;;;;3.30;0.73;;;;;;;;;;4945156;29;20097;-55
2020/12/16 14:40:04;;;;;;;4.70;0.50;;;;;;;;;;4945337;29;20083;-57
2020/12/16 14:42:29;;;;;;;4.38;0.60;;;;;;;;;;4935271;28;20040;-56